KCNO

Chino Airport

Chino, California, USA
METAR KCNO 230653Z AUTO 29005KT 8SM CLR 14/10 A2995 RMK AO2 SLP138 T01390100
Observed Flight Rules
May-23 @ 06:53 UTC (16 minutes ago) Visual Flight Rules
Wind Visibility Clouds
290° at 5 knots 8 miles
  • Clear skies
Temperatures Readings
Current 14°C / 57°F
Dewpoint 10°C / 50°F
Humidity 77%
Altimeter 29.95" Hg
Pressure 1013.8 hPa
Elevation 207
METAR KCNO 230653Z AUTO 29005KT 8SM CLR 14/10 A2995 RMK AO2 SLP138 T01390100
Observed Flight Rules
May-23 @ 06:53 UTC
(16 minutes ago)
VFR
Wind Visibility
290° at 5 knots 8 miles
Clouds
  • Clear skies
Temperature Dewpoint
14°C / 57°F 10°C / 50°F
Humidity Altimeter Pressure
77% 29.95" Hg 1013.8 hPa